首页
METAR-TAF:

METAR-TAF

机场 :

Rochelle Municipal Airport (Koritz Field)

罗沙尔, 伊利诺伊州, 美国

纬度: 41-53-35N, 经度: 089-04-42W, 海拔: 238米

当前天气观测

该预报发布于12分钟前的06:55 UTC
风速5节,风向西北
温度 11°C
湿度 94%
气压 1009 hPa
能見度: 16.1公里
阴天层高于900英尺

METAR: KRPJ 200655Z AUTO 32005KT 10SM OVC009 11/10 A2980 RMK AO2 T01080100

时间: 02:07 (07:07 UTC)


TAF: 丢失

超过4000个机场的气象观测和天气预报(METAR&TAF报告)。

可查询的气象台以黄色和红色小点在地图上表示。

将鼠标移到小点上方,可查看气象台名称。

然后点击查看天气观测和预报。

如需切换地图:点击带黑十字的绿色按钮放大地图;点击带横线的绿色按钮缩小地图;或者点击绿色箭头查看邻近地区的地图。


METAR-TAF: